Solana — WCY5602 — position and weather

sailwx.info

Track history (hours):
 
Tides and Currents Weather Stations Pressure Air Temp Water Temp Dewpoint Dewpoint Depression Visibility Wind Speed Wind Dir Waves Ship Positions

Solana

Owner: TAURUS MARINE, SAN FRANCISCO, CA. More information available from US FCC via Universal Licensing System and Coast Guard Vessel Documentation Center.

Last reported at 2017-Oct-20 20:01 UTC. Time now 2017-Oct-20 20:09 UTC.
Position N 37°49' W 122°20'.

Length 21 m; draft 3 m.

Type: Dredging. MMSI: 366969740.

Date/timePositionNaut miles runAvg speedWind from/ knotsBaromVisibWave heightAir tempDewpointWater temp
2017-Oct-20 20:01N 37°49' W 122°20'1 2.1
2017-Oct-20 19:30N 37°50' W 122°21'0 0.3
2017-Oct-20 19:00N 37°50' W 122°21'2 3.2
2017-Oct-20 18:31N 37°49' W 122°19'1 1.7
2017-Oct-20 18:01N 37°49' W 122°20'3 5.7
2017-Oct-20 17:31N 37°46' W 122°21'2 3.9
2017-Oct-20 17:00N 37°45' W 122°22'0 0.0
2017-Oct-20 16:30N 37°45' W 122°22'2 4.6
2017-Oct-20 16:00N 37°47' W 122°21'3 5.1
2017-Oct-20 15:30N 37°49' W 122°20'0 0.0
2017-Oct-20 15:01N 37°49' W 122°20'0 0.6
2017-Oct-20 14:30N 37°49' W 122°21'0 0.1
2017-Oct-20 13:31N 37°49' W 122°21'0 0.5
2017-Oct-20 13:01N 37°49' W 122°21'3 6.1
2017-Oct-20 12:31N 37°46' W 122°23'0 0.0
2017-Oct-20 12:00N 37°46' W 122°23'0 0.0
2017-Oct-20 11:30N 37°46' W 122°23'0 0.0
2017-Oct-20 11:00N 37°46' W 122°23'0 0.0
2017-Oct-20 10:31N 37°46' W 122°23'0 0.0
2017-Oct-20 10:00N 37°46' W 122°23'0 0.0
2017-Oct-20 09:30N 37°46' W 122°23'0 0.0
2017-Oct-20 09:00N 37°46' W 122°23'0 0.0
2017-Oct-20 08:30N 37°46' W 122°23'0 0.0
2017-Oct-20 08:00N 37°46' W 122°23'0 0.0
2017-Oct-20 07:31N 37°46' W 122°23'0 0.0
2017-Oct-20 07:00N 37°46' W 122°23'0 0.0
2017-Oct-20 06:30N 37°46' W 122°23'0 0.0
2017-Oct-20 06:01N 37°46' W 122°23'0 0.0
2017-Oct-20 05:30N 37°46' W 122°23'0 0.0
2017-Oct-20 05:00N 37°46' W 122°23'0 0.0
2017-Oct-20 04:30N 37°46' W 122°23'0 0.0
2017-Oct-20 04:01N 37°46' W 122°23'0 0.0
2017-Oct-20 03:30N 37°46' W 122°23'0 0.0
2017-Oct-20 03:00N 37°46' W 122°23'0 0.0
2017-Oct-20 02:30N 37°46' W 122°23'0 0.0
2017-Oct-20 02:01N 37°46' W 122°23'0 0.0
2017-Oct-20 01:30N 37°46' W 122°23'0 0.0
2017-Oct-20 01:00N 37°46' W 122°23'0 0.0
2017-Oct-20 00:30N 37°46' W 122°23'0 0.0
2017-Oct-20 00:00N 37°46' W 122°23'0 0.0
2017-Oct-19 23:30N 37°46' W 122°23'0 0.0
2017-Oct-19 23:00N 37°46' W 122°23'0 0.0
2017-Oct-19 22:30N 37°46' W 122°23'0 0.0
2017-Oct-19 22:00N 37°46' W 122°23'0 0.0
2017-Oct-19 21:31N 37°46' W 122°23'0 0.0
2017-Oct-19 21:01N 37°46' W 122°23'0 0.0
2017-Oct-19 20:30N 37°46' W 122°23'0 0.0
2017-Oct-19 20:00N 37°46' W 122°23'0 0.0
2017-Oct-19 19:30N 37°46' W 122°23'0 0.0
2017-Oct-19 19:00N 37°46' W 122°23'0 0.0
2017-Oct-19 18:31N 37°46' W 122°23'0 0.0
2017-Oct-19 18:00N 37°46' W 122°23'0 0.0
2017-Oct-19 17:30N 37°46' W 122°23'0 0.0
2017-Oct-19 17:01N 37°46' W 122°23'0 0.0
2017-Oct-19 16:30N 37°46' W 122°23'1 1.5
2017-Oct-19 16:01N 37°47' W 122°22'2 4.4
2017-Oct-19 15:30N 37°49' W 122°22'1 2.7
2017-Oct-19 15:00N 37°50' W 122°22'4 8.0
2017-Oct-19 14:30N 37°54' W 122°25'6 8.2
2017-Oct-19 13:47N 37°60' W 122°25'3 9.0
2017-Oct-19 13:29N 38°02' W 122°22'5 9.7
2017-Oct-19 13:00N 38°03' W 122°17'5 9.4
2017-Oct-19 12:30N 38°03' W 122°11'5 1.6
2017-Oct-19 09:35N 38°03' W 122°05'0 0.5
2017-Oct-19 09:08N 38°03' W 122°05'2 0.7
2017-Oct-19 05:45N 38°04' W 122°02'0 0.0
2017-Oct-19 04:53N 38°04' W 122°02'0 0.2
2017-Oct-19 04:30N 38°04' W 122°02'0 0.1
2017-Oct-19 04:00N 38°04' W 122°02'0 0.4
2017-Oct-19 03:30N 38°04' W 122°02'0 0.2
2017-Oct-19 03:00N 38°04' W 122°03'0 0.7
2017-Oct-19 02:25N 38°04' W 122°03'0 0.7
2017-Oct-19 01:59N 38°04' W 122°03'1 1.5
2017-Oct-19 01:30N 38°03' W 122°04'1 1.8
2017-Oct-19 01:00N 38°03' W 122°05'0 0.4
2017-Oct-19 00:30N 38°03' W 122°05'3 2.2
2017-Oct-18 23:17N 38°04' W 122°02'2 5.9
2017-Oct-18 22:53N 38°03' W 122°05'0 0.8
2017-Oct-18 22:27N 38°03' W 122°05'1 0.6
2017-Oct-18 21:36N 38°03' W 122°05'0 2.1
2017-Oct-18 21:30N 38°03' W 122°05'0 0.1
2017-Oct-18 20:58N 38°03' W 122°05'0 0.2
2017-Oct-18 20:30N 38°03' W 122°05'0 0.1
2017-Oct-18 19:59N 38°03' W 122°05'0 0.0
2017-Oct-18 19:30N 38°03' W 122°05'0 0.2
2017-Oct-18 19:00N 38°03' W 122°05'0 0.3
2017-Oct-18 18:30N 38°03' W 122°05'2 3.7
2017-Oct-18 18:00N 38°04' W 122°03'1 1.4
2017-Oct-18 17:30N 38°04' W 122°02'0 0.5
2017-Oct-18 17:00N 38°04' W 122°02'0 0.4
2017-Oct-18 16:29N 38°04' W 122°02'0 0.2
2017-Oct-18 16:00N 38°04' W 122°02'0 0.2
2017-Oct-18 15:30N 38°04' W 122°02'0 0.1
2017-Oct-18 15:00N 38°04' W 122°02'0 0.1
2017-Oct-18 13:55N 38°04' W 122°02'0 1.1
2017-Oct-18 13:30N 38°04' W 122°03'1 2.2
2017-Oct-18 13:00N 38°03' W 122°04'1 1.3
2017-Oct-18 12:29N 38°03' W 122°05'0 0.4
2017-Oct-18 12:00N 38°03' W 122°05'2 3.3
2017-Oct-18 11:23N 38°04' W 122°03'1 1.0
2017-Oct-18 10:44N 38°04' W 122°02'0 0.6
2017-Oct-18 09:56N 38°04' W 122°03'0 0.1
2017-Oct-18 09:26N 38°04' W 122°03'1 2.0
2017-Oct-18 09:00N 38°03' W 122°04'1 1.5
2017-Oct-18 08:29N 38°03' W 122°05'0 0.1
2017-Oct-18 08:00N 38°03' W 122°05'0 0.5
2017-Oct-18 07:30N 38°03' W 122°04'0 0.4
2017-Oct-18 06:59N 38°03' W 122°05'0 0.8
2017-Oct-18 06:30N 38°03' W 122°05'1 1.6
2017-Oct-18 06:00N 38°03' W 122°06'1 0.3
2017-Oct-18 02:13N 38°03' W 122°05'0 0.6
2017-Oct-18 01:57N 38°03' W 122°05'0 0.1
2017-Oct-18 00:53N 38°03' W 122°05'0 1.0
2017-Oct-18 00:28N 38°03' W 122°05'2 0.3
2017-Oct-17 17:29N 38°04' W 122°03'2 0.6
2017-Oct-17 14:09N 38°03' W 122°05'0 0.3
2017-Oct-17 13:52N 38°03' W 122°05'0 0.3
2017-Oct-17 13:23N 38°03' W 122°05'2 2.5
2017-Oct-17 12:29N 38°04' W 122°03'2 1.4
2017-Oct-17 10:46N 38°03' W 122°06'0 0.0
2017-Oct-17 01:52N 38°03' W 122°06'0 0.0
2017-Oct-16 15:38N 38°03' W 122°06'0 0.2
2017-Oct-16 15:27N 38°03' W 122°06'1 0.5
2017-Oct-16 13:46N 38°04' W 122°05'0 0.4
2017-Oct-16 13:29N 38°03' W 122°05'0 0.4
2017-Oct-16 12:39N 38°03' W 122°05'0 0.6
2017-Oct-16 12:29N 38°03' W 122°05'0 0.1
2017-Oct-16 07:39N 38°03' W 122°05'0 2.2
2017-Oct-16 07:26N 38°03' W 122°05'0 0.1
2017-Oct-16 06:24N 38°03' W 122°05'0 0.0
2017-Oct-16 02:36N 38°03' W 122°05'0 0.0
2017-Oct-16 02:24N 38°03' W 122°05'0 0.1
2017-Oct-15 23:49N 38°03' W 122°05'1 0.9
2017-Oct-15 23:15N 38°03' W 122°06'0 0.8
2017-Oct-15 22:45N 38°03' W 122°05'0 1.4
2017-Oct-15 22:28N 38°03' W 122°05'1 0.1
2017-Oct-15 17:28N 38°03' W 122°06'0 0.1
2017-Oct-15 14:37N 38°03' W 122°06'0 0.5
2017-Oct-15 14:00N 38°03' W 122°06'1 1.1
2017-Oct-15 12:50N 38°04' W 122°05'0 0.6
2017-Oct-15 12:03N 38°03' W 122°05'0 0.2
2017-Oct-15 11:54N 38°03' W 122°05'0 0.1
2017-Oct-15 11:22N 38°03' W 122°05'0 0.3
2017-Oct-15 10:59N 38°03' W 122°05'1 0.0
2017-Oct-14 11:20N 38°03' W 122°06'0 0.3
2017-Oct-14 09:52N 38°03' W 122°05'0 0.1
2017-Oct-14 08:04N 38°03' W 122°05'0 0.4
2017-Oct-14 07:50N 38°03' W 122°05'0 0.6
2017-Oct-14 07:27N 38°03' W 122°05'0 1.1
2017-Oct-14 07:00N 38°03' W 122°06'0 0.3
2017-Oct-14 06:16N 38°03' W 122°06'0 0.0
2017-Oct-14 02:45N 38°03' W 122°06'0 0.0
2017-Oct-14 02:25N 38°03' W 122°06'0 0.0
2017-Oct-13 17:46N 38°03' W 122°06'0 0.0
2017-Oct-13 17:29N 38°03' W 122°06'1 0.3
2017-Oct-13 15:23N 38°03' W 122°05'1 1.9
2017-Oct-13 14:55N 38°03' W 122°06'1 0.7
2017-Oct-13 12:48N 38°04' W 122°05'0 0.2
2017-Oct-13 12:11N 38°03' W 122°05'0 0.0
2017-Oct-13 07:34N 38°03' W 122°05'0 0.7
2017-Oct-13 07:04N 38°03' W 122°05'0 0.7
2017-Oct-13 06:56N 38°03' W 122°06'0 0.4
2017-Oct-13 06:29N 38°03' W 122°05'0 0.4
2017-Oct-13 05:50N 38°03' W 122°06'0 0.0
2017-Oct-13 03:34N 38°03' W 122°06'0 0.0
2017-Oct-12 23:28N 38°03' W 122°06'0 0.1
2017-Oct-12 22:45N 38°03' W 122°06'0 0.4
2017-Oct-12 22:30N 38°03' W 122°06'0 0.1
2017-Oct-12 20:51N 38°03' W 122°06'0 0.1
2017-Oct-12 19:06N 38°03' W 122°06'0 0.7
2017-Oct-12 18:53N 38°03' W 122°05'0 0.6
2017-Oct-12 18:28N 38°03' W 122°05'0 0.5
2017-Oct-12 17:52N 38°03' W 122°05'0 0.1
2017-Oct-12 17:24N 38°03' W 122°05'0 0.9
2017-Oct-12 16:54N 38°03' W 122°05'0 0.0
2017-Oct-12 09:33N 38°03' W 122°05'0 0.7
2017-Oct-12 09:16N 38°03' W 122°05'0 0.3
2017-Oct-12 08:47N 38°03' W 122°05'0 0.4
2017-Oct-12 08:30N 38°03' W 122°06'0 0.1
2017-Oct-12 07:42N 38°03' W 122°06'1 2.3
2017-Oct-12 07:29N 38°03' W 122°05'0 0.0
2017-Oct-11 23:12N 38°03' W 122°05'0 0.0
2017-Oct-10 20:01N 38°03' W 122°05'  
Track history (hours):
 
Tides and Currents Weather Stations Pressure Air Temp Water Temp Dewpoint Dewpoint Depression Visibility Wind Speed Wind Dir Waves Ship Positions

Solana

Owner: TAURUS MARINE, SAN FRANCISCO, CA. More information available from US FCC via Universal Licensing System and Coast Guard Vessel Documentation Center.

Last reported at 2017-Oct-20 20:01 UTC. Time now 2017-Oct-20 20:09 UTC.
Position N 37°49' W 122°20'.

Length 21 m; draft 3 m.

Type: Dredging. MMSI: 366969740.

Date/timePositionNaut miles runAvg speedWind from/ knotsBaromVisibWave heightAir tempDewpointWater temp
2017-Oct-20 20:01N 37°49' W 122°20'1 2.1
2017-Oct-20 19:30N 37°50' W 122°21'0 0.3
2017-Oct-20 19:00N 37°50' W 122°21'2 3.2
2017-Oct-20 18:31N 37°49' W 122°19'1 1.7
2017-Oct-20 18:01N 37°49' W 122°20'3 5.7
2017-Oct-20 17:31N 37°46' W 122°21'2 3.9
2017-Oct-20 17:00N 37°45' W 122°22'0 0.0
2017-Oct-20 16:30N 37°45' W 122°22'2 4.6
2017-Oct-20 16:00N 37°47' W 122°21'3 5.1
2017-Oct-20 15:30N 37°49' W 122°20'0 0.0
2017-Oct-20 15:01N 37°49' W 122°20'0 0.6
2017-Oct-20 14:30N 37°49' W 122°21'0 0.1
2017-Oct-20 13:31N 37°49' W 122°21'0 0.5
2017-Oct-20 13:01N 37°49' W 122°21'3 6.1
2017-Oct-20 12:31N 37°46' W 122°23'0 0.0
2017-Oct-20 12:00N 37°46' W 122°23'0 0.0
2017-Oct-20 11:30N 37°46' W 122°23'0 0.0
2017-Oct-20 11:00N 37°46' W 122°23'0 0.0
2017-Oct-20 10:31N 37°46' W 122°23'0 0.0
2017-Oct-20 10:00N 37°46' W 122°23'0 0.0
2017-Oct-20 09:30N 37°46' W 122°23'0 0.0
2017-Oct-20 09:00N 37°46' W 122°23'0 0.0
2017-Oct-20 08:30N 37°46' W 122°23'0 0.0
2017-Oct-20 08:00N 37°46' W 122°23'0 0.0
2017-Oct-20 07:31N 37°46' W 122°23'0 0.0
2017-Oct-20 07:00N 37°46' W 122°23'0 0.0
2017-Oct-20 06:30N 37°46' W 122°23'0 0.0
2017-Oct-20 06:01N 37°46' W 122°23'0 0.0
2017-Oct-20 05:30N 37°46' W 122°23'0 0.0
2017-Oct-20 05:00N 37°46' W 122°23'0 0.0
2017-Oct-20 04:30N 37°46' W 122°23'0 0.0
2017-Oct-20 04:01N 37°46' W 122°23'0 0.0
2017-Oct-20 03:30N 37°46' W 122°23'0 0.0
2017-Oct-20 03:00N 37°46' W 122°23'0 0.0
2017-Oct-20 02:30N 37°46' W 122°23'0 0.0
2017-Oct-20 02:01N 37°46' W 122°23'0 0.0
2017-Oct-20 01:30N 37°46' W 122°23'0 0.0
2017-Oct-20 01:00N 37°46' W 122°23'0 0.0
2017-Oct-20 00:30N 37°46' W 122°23'0 0.0
2017-Oct-20 00:00N 37°46' W 122°23'0 0.0
2017-Oct-19 23:30N 37°46' W 122°23'0 0.0
2017-Oct-19 23:00N 37°46' W 122°23'0 0.0
2017-Oct-19 22:30N 37°46' W 122°23'0 0.0
2017-Oct-19 22:00N 37°46' W 122°23'0 0.0
2017-Oct-19 21:31N 37°46' W 122°23'0 0.0
2017-Oct-19 21:01N 37°46' W 122°23'0 0.0
2017-Oct-19 20:30N 37°46' W 122°23'0 0.0
2017-Oct-19 20:00N 37°46' W 122°23'0 0.0
2017-Oct-19 19:30N 37°46' W 122°23'0 0.0
2017-Oct-19 19:00N 37°46' W 122°23'0 0.0
2017-Oct-19 18:31N 37°46' W 122°23'0 0.0
2017-Oct-19 18:00N 37°46' W 122°23'0 0.0
2017-Oct-19 17:30N 37°46' W 122°23'0 0.0
2017-Oct-19 17:01N 37°46' W 122°23'0 0.0
2017-Oct-19 16:30N 37°46' W 122°23'1 1.5
2017-Oct-19 16:01N 37°47' W 122°22'2 4.4
2017-Oct-19 15:30N 37°49' W 122°22'1 2.7
2017-Oct-19 15:00N 37°50' W 122°22'4 8.0
2017-Oct-19 14:30N 37°54' W 122°25'6 8.2
2017-Oct-19 13:47N 37°60' W 122°25'3 9.0
2017-Oct-19 13:29N 38°02' W 122°22'5 9.7
2017-Oct-19 13:00N 38°03' W 122°17'5 9.4
2017-Oct-19 12:30N 38°03' W 122°11'5 1.6
2017-Oct-19 09:35N 38°03' W 122°05'0 0.5
2017-Oct-19 09:08N 38°03' W 122°05'2 0.7
2017-Oct-19 05:45N 38°04' W 122°02'0 0.0
2017-Oct-19 04:53N 38°04' W 122°02'0 0.2
2017-Oct-19 04:30N 38°04' W 122°02'0 0.1
2017-Oct-19 04:00N 38°04' W 122°02'0 0.4
2017-Oct-19 03:30N 38°04' W 122°02'0 0.2
2017-Oct-19 03:00N 38°04' W 122°03'0 0.7
2017-Oct-19 02:25N 38°04' W 122°03'0 0.7
2017-Oct-19 01:59N 38°04' W 122°03'1 1.5
2017-Oct-19 01:30N 38°03' W 122°04'1 1.8
2017-Oct-19 01:00N 38°03' W 122°05'0 0.4
2017-Oct-19 00:30N 38°03' W 122°05'3 2.2
2017-Oct-18 23:17N 38°04' W 122°02'2 5.9
2017-Oct-18 22:53N 38°03' W 122°05'0 0.8
2017-Oct-18 22:27N 38°03' W 122°05'1 0.6
2017-Oct-18 21:36N 38°03' W 122°05'0 2.1
2017-Oct-18 21:30N 38°03' W 122°05'0 0.1
2017-Oct-18 20:58N 38°03' W 122°05'0 0.2
2017-Oct-18 20:30N 38°03' W 122°05'0 0.1
2017-Oct-18 19:59N 38°03' W 122°05'0 0.0
2017-Oct-18 19:30N 38°03' W 122°05'0 0.2
2017-Oct-18 19:00N 38°03' W 122°05'0 0.3
2017-Oct-18 18:30N 38°03' W 122°05'2 3.7
2017-Oct-18 18:00N 38°04' W 122°03'1 1.4
2017-Oct-18 17:30N 38°04' W 122°02'0 0.5
2017-Oct-18 17:00N 38°04' W 122°02'0 0.4
2017-Oct-18 16:29N 38°04' W 122°02'0 0.2
2017-Oct-18 16:00N 38°04' W 122°02'0 0.2
2017-Oct-18 15:30N 38°04' W 122°02'0 0.1
2017-Oct-18 15:00N 38°04' W 122°02'0 0.1
2017-Oct-18 13:55N 38°04' W 122°02'0 1.1
2017-Oct-18 13:30N 38°04' W 122°03'1 2.2
2017-Oct-18 13:00N 38°03' W 122°04'1 1.3
2017-Oct-18 12:29N 38°03' W 122°05'0 0.4
2017-Oct-18 12:00N 38°03' W 122°05'2 3.3
2017-Oct-18 11:23N 38°04' W 122°03'1 1.0
2017-Oct-18 10:44N 38°04' W 122°02'0 0.6
2017-Oct-18 09:56N 38°04' W 122°03'0 0.1
2017-Oct-18 09:26N 38°04' W 122°03'1 2.0
2017-Oct-18 09:00N 38°03' W 122°04'1 1.5
2017-Oct-18 08:29N 38°03' W 122°05'0 0.1
2017-Oct-18 08:00N 38°03' W 122°05'0 0.5
2017-Oct-18 07:30N 38°03' W 122°04'0 0.4
2017-Oct-18 06:59N 38°03' W 122°05'0 0.8
2017-Oct-18 06:30N 38°03' W 122°05'1 1.6
2017-Oct-18 06:00N 38°03' W 122°06'1 0.3
2017-Oct-18 02:13N 38°03' W 122°05'0 0.6
2017-Oct-18 01:57N 38°03' W 122°05'0 0.1
2017-Oct-18 00:53N 38°03' W 122°05'0 1.0
2017-Oct-18 00:28N 38°03' W 122°05'2 0.3
2017-Oct-17 17:29N 38°04' W 122°03'2 0.6
2017-Oct-17 14:09N 38°03' W 122°05'0 0.3
2017-Oct-17 13:52N 38°03' W 122°05'0 0.3
2017-Oct-17 13:23N 38°03' W 122°05'2 2.5
2017-Oct-17 12:29N 38°04' W 122°03'2 1.4
2017-Oct-17 10:46N 38°03' W 122°06'0 0.0
2017-Oct-17 01:52N 38°03' W 122°06'0 0.0
2017-Oct-16 15:38N 38°03' W 122°06'0 0.2
2017-Oct-16 15:27N 38°03' W 122°06'1 0.5
2017-Oct-16 13:46N 38°04' W 122°05'0 0.4
2017-Oct-16 13:29N 38°03' W 122°05'0 0.4
2017-Oct-16 12:39N 38°03' W 122°05'0 0.6
2017-Oct-16 12:29N 38°03' W 122°05'0 0.1
2017-Oct-16 07:39N 38°03' W 122°05'0 2.2
2017-Oct-16 07:26N 38°03' W 122°05'0 0.1
2017-Oct-16 06:24N 38°03' W 122°05'0 0.0
2017-Oct-16 02:36N 38°03' W 122°05'0 0.0
2017-Oct-16 02:24N 38°03' W 122°05'0 0.1
2017-Oct-15 23:49N 38°03' W 122°05'1 0.9
2017-Oct-15 23:15N 38°03' W 122°06'0 0.8
2017-Oct-15 22:45N 38°03' W 122°05'0 1.4
2017-Oct-15 22:28N 38°03' W 122°05'1 0.1
2017-Oct-15 17:28N 38°03' W 122°06'0 0.1
2017-Oct-15 14:37N 38°03' W 122°06'0 0.5
2017-Oct-15 14:00N 38°03' W 122°06'1 1.1
2017-Oct-15 12:50N 38°04' W 122°05'0 0.6
2017-Oct-15 12:03N 38°03' W 122°05'0 0.2
2017-Oct-15 11:54N 38°03' W 122°05'0 0.1
2017-Oct-15 11:22N 38°03' W 122°05'0 0.3
2017-Oct-15 10:59N 38°03' W 122°05'1 0.0
2017-Oct-14 11:20N 38°03' W 122°06'0 0.3
2017-Oct-14 09:52N 38°03' W 122°05'0 0.1
2017-Oct-14 08:04N 38°03' W 122°05'0 0.4
2017-Oct-14 07:50N 38°03' W 122°05'0 0.6
2017-Oct-14 07:27N 38°03' W 122°05'0 1.1
2017-Oct-14 07:00N 38°03' W 122°06'0 0.3
2017-Oct-14 06:16N 38°03' W 122°06'0 0.0
2017-Oct-14 02:45N 38°03' W 122°06'0 0.0
2017-Oct-14 02:25N 38°03' W 122°06'0 0.0
2017-Oct-13 17:46N 38°03' W 122°06'0 0.0
2017-Oct-13 17:29N 38°03' W 122°06'1 0.3
2017-Oct-13 15:23N 38°03' W 122°05'1 1.9
2017-Oct-13 14:55N 38°03' W 122°06'1 0.7
2017-Oct-13 12:48N 38°04' W 122°05'0 0.2
2017-Oct-13 12:11N 38°03' W 122°05'0 0.0
2017-Oct-13 07:34N 38°03' W 122°05'0 0.7
2017-Oct-13 07:04N 38°03' W 122°05'0 0.7
2017-Oct-13 06:56N 38°03' W 122°06'0 0.4
2017-Oct-13 06:29N 38°03' W 122°05'0 0.4
2017-Oct-13 05:50N 38°03' W 122°06'0 0.0
2017-Oct-13 03:34N 38°03' W 122°06'0 0.0
2017-Oct-12 23:28N 38°03' W 122°06'0 0.1
2017-Oct-12 22:45N 38°03' W 122°06'0 0.4
2017-Oct-12 22:30N 38°03' W 122°06'0 0.1
2017-Oct-12 20:51N 38°03' W 122°06'0 0.1
2017-Oct-12 19:06N 38°03' W 122°06'0 0.7
2017-Oct-12 18:53N 38°03' W 122°05'0 0.6
2017-Oct-12 18:28N 38°03' W 122°05'0 0.5
2017-Oct-12 17:52N 38°03' W 122°05'0 0.1
2017-Oct-12 17:24N 38°03' W 122°05'0 0.9
2017-Oct-12 16:54N 38°03' W 122°05'0 0.0
2017-Oct-12 09:33N 38°03' W 122°05'0 0.7
2017-Oct-12 09:16N 38°03' W 122°05'0 0.3
2017-Oct-12 08:47N 38°03' W 122°05'0 0.4
2017-Oct-12 08:30N 38°03' W 122°06'0 0.1
2017-Oct-12 07:42N 38°03' W 122°06'1 2.3
2017-Oct-12 07:29N 38°03' W 122°05'0 0.0
2017-Oct-11 23:12N 38°03' W 122°05'0 0.0
2017-Oct-10 20:01N 38°03' W 122°05'  

Dump ship's entire track history